SLC weather

Salt Lake City International Airport
Salt Lake City, Utah, United States

Public forecast

Using degrees Fahrenheit for public forecast. Weather courtesy of forecast.io.

Current aviation weather report (METAR) for Salt Lake City International Airport

Retrieved 2019/10/13 18:54 UTC (27 minutes ago):

KSLC 131854Z VRB04KT 10SM FEW220 17/M09 A3001 RMK AO2 SLP141 T01671094

Aviation forecast (TAF) for Salt Lake City International Airport

Retrieved 2019/10/13 18:36 UTC (45 minutes ago):

TAF KSLC 131732Z 1318/1424 03003KT P6SM SKC FM131930 31008KT P6SM FEW250 FM140300 15006KT P6SM FEW150